Time;durP1;ratioP1;P1;durP2;ratioP2;P2;SDS_P1;SDS_P2;PMS_P1;PMS_P2;Temp;Humidity;BMP_temperature;BMP_pressure;BME280_temperature;BME280_humidity;BME280_pressure;Samples;Min_cycle;Max_cycle;Signal;HPM_P1;HPM_P2
2024/02/14 00:00:52;;;;;;;;;0.00;0.00;;;;;14.04;100.00;101535.09;5076787;28;75585;-80
2024/02/14 00:03:19;;;;;;;;;0.00;0.00;;;;;14.02;100.00;101531.66;5076994;27;68242;-81
2024/02/14 00:05:45;;;;;;;;;0.00;0.00;;;;;14.05;100.00;101528.94;5078054;28;45308;-80
2024/02/14 00:08:11;;;;;;;;;0.00;0.00;;;;;14.10;100.00;101531.41;5076658;28;69075;-80
2024/02/14 00:10:36;;;;;;;;;0.00;0.00;;;;;14.13;100.00;101537.41;5077336;28;45389;-80
2024/02/14 00:13:02;;;;;;;;;0.00;0.00;;;;;14.11;100.00;101530.50;5076785;28;71965;-80
2024/02/14 00:15:27;;;;;;;;;0.00;0.00;;;;;14.05;100.00;101539.41;5076573;28;45390;-80
2024/02/14 00:17:53;;;;;;;;;0.00;0.00;;;;;14.09;100.00;101532.31;5077807;28;45383;-82
2024/02/14 00:20:19;;;;;;;;;0.00;0.00;;;;;14.10;100.00;101540.13;5077651;27;45963;-81
2024/02/14 00:22:45;;;;;;;;;0.00;0.00;;;;;14.11;100.00;101551.44;5077335;27;45391;-82
2024/02/14 00:25:11;;;;;;;;;0.00;0.00;;;;;14.14;100.00;101556.59;5074909;27;69343;-81
2024/02/14 00:27:36;;;;;;;;;0.00;0.00;;;;;14.17;100.00;101555.63;5077670;27;45462;-82
2024/02/14 00:30:03;;;;;;;;;0.00;0.00;;;;;14.20;100.00;101548.53;5077509;27;45451;-82
2024/02/14 00:32:28;;;;;;;;;0.00;0.00;;;;;14.20;100.00;101551.16;5077386;27;45449;-81
2024/02/14 00:34:53;;;;;;;;;0.33;0.33;;;;;14.10;100.00;101560.22;5075263;28;69267;-82
2024/02/14 00:37:19;;;;;;;;;0.00;0.00;;;;;14.16;100.00;101562.63;5077367;27;45463;-79
2024/02/14 00:39:45;;;;;;;;;0.00;0.00;;;;;14.12;100.00;101561.88;5076887;28;46275;-81
2024/02/14 00:42:10;;;;;;;;;0.00;0.00;;;;;14.18;100.00;101552.97;5075939;28;45317;-81
2024/02/14 00:44:36;;;;;;;;;0.00;0.00;;;;;14.20;100.00;101552.94;5077314;28;45374;-80
2024/02/14 00:47:02;;;;;;;;;0.00;0.00;;;;;14.18;100.00;101558.22;5075830;28;45309;-81
2024/02/14 00:49:28;;;;;;;;;0.00;0.00;;;;;14.25;100.00;101553.66;5076649;28;45378;-82
2024/02/14 00:51:53;;;;;;;;;0.00;0.00;;;;;14.23;100.00;101558.09;5076904;28;45402;-82
2024/02/14 00:54:19;;;;;;;;;0.00;0.00;;;;;14.27;100.00;101564.94;5076435;27;51444;-79
2024/02/14 00:56:44;;;;;;;;;0.75;0.75;;;;;14.25;100.00;101570.22;5076894;27;45319;-79
2024/02/14 00:59:09;;;;;;;;;0.00;0.00;;;;;14.28;100.00;101567.50;5076577;28;53379;-80
2024/02/14 01:01:35;;;;;;;;;0.00;0.00;;;;;14.30;100.00;101559.56;5076498;28;49798;-79
2024/02/14 01:04:00;;;;;;;;;0.00;0.00;;;;;14.33;100.00;101562.09;5075704;28;45446;-79
2024/02/14 01:06:26;;;;;;;;;0.00;0.00;;;;;14.34;100.00;101561.22;5075053;28;70387;-79
2024/02/14 01:08:51;;;;;;;;;0.00;0.00;;;;;14.28;100.00;101551.78;5076089;27;45955;-78
2024/02/14 01:11:16;;;;;;;;;0.00;0.00;;;;;14.32;100.00;101544.69;5076496;27;45352;-79
2024/02/14 01:13:42;;;;;;;;;0.00;0.00;;;;;14.32;100.00;101548.16;5076818;27;45269;-80
2024/02/14 01:16:07;;;;;;;;;0.00;0.00;;;;;14.39;100.00;101540.09;5075855;28;63165;-80
2024/02/14 01:18:33;;;;;;;;;0.00;0.00;;;;;14.36;100.00;101554.16;5075100;28;45337;-81
2024/02/14 01:21:01;;;;;;;;;0.00;0.00;;;;;14.38;100.00;101547.13;5076537;28;45297;-81
2024/02/14 01:23:27;;;;;;;;;0.00;0.00;;;;;14.29;100.00;101555.25;5075864;27;45528;-81
2024/02/14 01:25:54;;;;;;;;;0.00;0.00;;;;;14.25;100.00;101559.72;5076564;28;45496;-81
2024/02/14 01:28:20;;;;;;;;;0.00;0.00;;;;;14.22;100.00;101551.97;5076427;27;45510;-80
2024/02/14 01:30:45;;;;;;;;;0.00;0.00;;;;;14.17;100.00;101564.38;5076281;28;45312;-81
2024/02/14 01:33:10;;;;;;;;;3.00;0.00;;;;;14.22;100.00;101569.44;5075560;27;64683;-80
2024/02/14 01:35:36;;;;;;;;;0.67;0.67;;;;;14.26;100.00;101566.69;5075741;28;57314;-81
2024/02/14 01:38:02;;;;;;;;;0.00;0.00;;;;;14.29;100.00;101565.72;5075012;27;75247;-81
2024/02/14 01:40:28;;;;;;;;;0.50;0.00;;;;;14.30;100.00;101572.66;5075387;28;45323;-81
2024/02/14 01:42:53;;;;;;;;;0.00;0.00;;;;;14.28;100.00;101584.97;5076617;28;45255;-82
2024/02/14 01:45:19;;;;;;;;;0.00;0.00;;;;;14.32;100.00;101578.75;5076735;27;45409;-81
2024/02/14 01:47:44;;;;;;;;;0.00;0.00;;;;;14.39;100.00;101584.63;5076193;27;46206;-81
2024/02/14 01:50:11;;;;;;;;;0.00;0.00;;;;;14.40;100.00;101584.59;5075277;28;72200;-80
2024/02/14 01:52:37;;;;;;;;;0.00;0.00;;;;;14.37;100.00;101581.19;5074896;28;45402;-80
2024/02/14 01:55:04;;;;;;;;;0.00;0.00;;;;;14.40;100.00;101583.75;5076500;28;45360;-81
2024/02/14 01:57:31;;;;;;;;;0.00;0.00;;;;;14.40;100.00;101586.34;5074827;28;45324;-80
2024/02/14 01:59:57;;;;;;;;;0.00;0.00;;;;;14.36;100.00;101580.34;5076379;27;45354;-81
2024/02/14 02:02:25;;;;;;;;;0.00;0.00;;;;;14.30;100.00;101591.88;5076257;27;45293;-81
2024/02/14 02:04:51;;;;;;;;;0.00;0.00;;;;;14.39;100.00;101576.78;5076325;27;45432;-80
2024/02/14 02:07:17;;;;;;;;;0.00;0.00;;;;;14.35;100.00;101590.88;5075683;28;45389;-81
2024/02/14 02:09:42;;;;;;;;;0.00;0.00;;;;;14.42;100.00;101581.94;5074688;28;45288;-80
2024/02/14 02:12:08;;;;;;;;;0.00;0.00;;;;;14.40;100.00;101574.09;5076116;28;45452;-80
2024/02/14 02:14:33;;;;;;;;;0.00;0.00;;;;;14.38;100.00;101570.69;5075895;28;45501;-80
2024/02/14 02:16:59;;;;;;;;;0.00;0.00;;;;;14.40;100.00;101574.09;5075857;28;46290;-82
2024/02/14 02:19:24;;;;;;;;;0.00;0.00;;;;;14.43;100.00;101586.25;5078507;28;45415;-81
2024/02/14 02:21:50;;;;;;;;;0.00;0.00;;;;;14.42;100.00;101576.69;5078202;28;65432;-81
2024/02/14 02:24:15;;;;;;;;;0.00;0.00;;;;;14.44;100.00;101580.13;5078987;27;45261;-78
2024/02/14 02:26:40;;;;;;;;;0.00;0.00;;;;;14.43;100.00;101587.13;5079118;27;46350;-81
2024/02/14 02:29:06;;;;;;;;;0.00;0.00;;;;;14.40;100.00;101581.97;5078427;27;67544;-78
2024/02/14 02:31:31;;;;;;;;;18.00;18.00;;;;;14.40;100.00;101575.88;5077709;28;45398;-78
2024/02/14 02:33:57;;;;;;;;;0.00;0.00;;;;;14.37;100.00;101576.81;5078149;28;45448;-79
2024/02/14 02:36:24;;;;;;;;;0.00;0.00;;;;;14.40;100.00;101581.13;5077801;28;46898;-81
2024/02/14 02:38:49;;;;;;;;;0.00;0.00;;;;;14.40;100.00;101573.25;5077795;28;45522;-81
2024/02/14 02:41:15;;;;;;;;;0.00;0.00;;;;;14.44;100.00;101575.72;5079122;28;45371;-81
2024/02/14 02:43:40;;;;;;;;;0.00;0.00;;;;;14.40;100.00;101581.97;5076916;28;65832;-79
2024/02/14 02:46:09;;;;;;;;;0.00;0.00;;;;;14.37;100.00;101579.44;5077816;28;72529;-81
2024/02/14 02:48:34;;;;;;;;;0.75;0.75;;;;;14.41;100.00;101578.47;5078513;28;45271;-80
2024/02/14 02:50:59;;;;;;;;;3.33;3.33;;;;;14.46;100.00;101579.16;5078122;28;60102;-80
2024/02/14 02:53:25;;;;;;;;;0.00;0.00;;;;;14.48;100.00;101573.88;5077693;28;68187;-80
2024/02/14 02:55:51;;;;;;;;;3.33;3.33;;;;;14.52;100.00;101581.59;5077726;28;74631;-80
2024/02/14 02:58:16;;;;;;;;;0.00;0.00;;;;;14.49;100.00;101580.84;5078739;27;45317;-80
2024/02/14 03:00:42;;;;;;;;;0.00;0.00;;;;;14.53;100.00;101591.16;5078921;28;45481;-80
2024/02/14 03:03:08;;;;;;;;;0.00;0.00;;;;;14.48;100.00;101573.88;5077617;27;69024;-80
2024/02/14 03:05:34;;;;;;;;;0.00;0.00;;;;;14.45;100.00;101579.19;5078554;28;45597;-80
2024/02/14 03:08:00;;;;;;;;;0.00;0.00;;;;;14.43;100.00;101578.38;5078465;28;45755;-80
2024/02/14 03:10:26;;;;;;;;;0.00;0.00;;;;;14.53;100.00;101580.66;5077593;28;45384;-80
2024/02/14 03:12:51;;;;;;;;;0.00;0.00;;;;;14.55;100.00;101574.53;5077363;28;45570;-80
2024/02/14 03:15:18;;;;;;;;;0.00;0.00;;;;;14.57;100.00;101554.38;5078478;28;47306;-80
2024/02/14 03:17:44;;;;;;;;;0.00;0.00;;;;;14.56;100.00;101571.88;5078544;28;45354;-81
2024/02/14 03:20:12;;;;;;;;;0.00;0.00;;;;;14.65;100.00;101578.59;5079041;28;45338;-81
2024/02/14 03:22:38;;;;;;;;;0.00;0.00;;;;;14.54;100.00;101571.03;5078816;28;45444;-81
2024/02/14 03:25:03;;;;;;;;;0.00;0.00;;;;;14.46;100.00;101571.28;5078172;27;45382;-81
2024/02/14 03:27:31;;;;;;;;;0.00;0.00;;;;;14.47;100.00;101572.16;5078318;27;47233;-81
2024/02/14 03:29:58;;;;;;;;;0.00;0.00;;;;;14.48;100.00;101559.00;5077898;27;45464;-81
2024/02/14 03:32:23;;;;;;;;;0.00;0.00;;;;;14.49;100.00;101567.72;5078018;27;45404;-81
2024/02/14 03:34:48;;;;;;;;;0.00;0.00;;;;;14.49;100.00;101571.19;5077231;27;76519;-81
2024/02/14 03:37:14;;;;;;;;;0.00;0.00;;;;;14.51;100.00;101574.63;5077244;28;72025;-80
2024/02/14 03:39:39;;;;;;;;;0.00;0.00;;;;;14.53;100.00;101571.97;5078381;27;45378;-81
2024/02/14 03:42:07;;;;;;;;;0.00;0.00;;;;;14.58;100.00;101577.94;5078162;27;48795;-81
2024/02/14 03:44:33;;;;;;;;;0.00;0.00;;;;;14.58;100.00;101572.72;5077907;27;46072;-81
2024/02/14 03:46:58;;;;;;;;;0.00;0.00;;;;;14.49;100.00;101572.97;5076325;28;45334;-82
2024/02/14 03:49:25;;;;;;;;;0.00;0.00;;;;;14.57;100.00;101577.97;5076148;28;58804;-80
2024/02/14 03:51:54;;;;;;;;;0.00;0.00;;;;;14.56;100.00;101574.50;5077971;27;45575;-80
2024/02/14 03:54:19;;;;;;;;;0.00;0.00;;;;;14.69;100.00;101557.50;5077902;28;45635;-80
2024/02/14 03:56:45;;;;;;;;;0.00;0.00;;;;;14.61;100.00;101571.75;5077956;27;45404;-80
2024/02/14 03:59:11;;;;;;;;;0.00;0.00;;;;;14.63;100.00;101567.31;5077996;27;45407;-80
2024/02/14 04:01:36;;;;;;;;;0.00;0.00;;;;;14.74;100.00;101572.19;5075529;28;61692;-80
2024/02/14 04:04:02;;;;;;;;;1.00;0.00;;;;;14.67;100.00;101582.88;5076832;28;68004;-80
2024/02/14 04:06:27;;;;;;;;;0.00;0.00;;;;;14.73;100.00;101575.72;5077576;28;45379;-80
2024/02/14 04:08:53;;;;;;;;;0.00;0.00;;;;;14.74;100.00;101578.28;5077896;28;45412;-81
2024/02/14 04:11:18;;;;;;;;;0.00;0.00;;;;;14.74;100.00;101572.19;5076760;28;70644;-80
2024/02/14 04:13:43;;;;;;;;;0.00;0.00;;;;;14.69;100.00;101574.94;5076522;28;75358;-80
2024/02/14 04:16:08;;;;;;;;;0.00;0.00;;;;;14.70;100.00;101584.53;5076020;27;71926;-80
2024/02/14 04:18:34;;;;;;;;;0.00;0.00;;;;;14.70;100.00;101582.78;5076826;27;68016;-80
2024/02/14 04:20:59;;;;;;;;;0.00;0.00;;;;;14.73;100.00;101581.84;5077208;27;45455;-80
2024/02/14 04:23:25;;;;;;;;;0.00;0.00;;;;;14.72;100.00;101593.22;5076816;27;46123;-80
2024/02/14 04:25:51;;;;;;;;;0.00;0.00;;;;;14.73;100.00;101584.44;5077299;27;45381;-80
2024/02/14 04:28:16;;;;;;;;;0.00;0.00;;;;;14.74;100.00;101580.91;5076810;27;57470;-80
2024/02/14 04:30:41;;;;;;;;;0.00;0.00;;;;;14.75;100.00;101581.78;5077041;27;45463;-80
2024/02/14 04:33:08;;;;;;;;;0.00;0.00;;;;;14.75;100.00;101574.78;5076881;28;46164;-80
2024/02/14 04:35:33;;;;;;;;;0.00;0.00;;;;;14.80;100.00;101585.09;5077269;28;45532;-80
2024/02/14 04:37:59;;;;;;;;;0.00;0.00;;;;;14.80;100.00;101585.09;5077458;28;45393;-80
2024/02/14 04:40:24;;;;;;;;;0.00;0.00;;;;;14.77;100.00;101582.59;5077304;28;45461;-80
2024/02/14 04:42:50;;;;;;;;;0.00;0.00;;;;;14.78;100.00;101579.91;5075010;27;65661;-80
2024/02/14 04:45:15;;;;;;;;;0.00;0.00;;;;;14.79;100.00;101580.78;5076417;27;45319;-80
2024/02/14 04:47:41;;;;;;;;;0.50;0.00;;;;;14.78;100.00;101585.13;5077172;28;45345;-81
2024/02/14 04:50:06;;;;;;;;;0.00;0.00;;;;;14.78;100.00;101582.50;5076830;27;45304;-80
2024/02/14 04:52:32;;;;;;;;;0.00;0.00;;;;;14.74;100.00;101567.81;5076537;28;50296;-80
2024/02/14 04:54:57;;;;;;;;;0.00;0.00;;;;;14.77;100.00;101569.50;5076269;28;73190;-81
2024/02/14 04:57:22;;;;;;;;;0.00;0.00;;;;;14.80;100.00;101571.97;5077220;27;45594;-80
2024/02/14 04:59:48;;;;;;;;;0.00;0.00;;;;;14.87;100.00;101568.25;5077010;28;45229;-80
2024/02/14 05:02:13;;;;;;;;;0.00;0.00;;;;;14.88;100.00;101581.31;5075854;28;75642;-80
2024/02/14 05:04:39;;;;;;;;;0.00;0.00;;;;;14.88;100.00;101580.47;5077074;28;45324;-80
2024/02/14 05:07:04;;;;;;;;;0.00;0.00;;;;;14.88;100.00;101583.94;5076846;28;45438;-80
2024/02/14 05:09:30;;;;;;;;;0.00;0.00;;;;;14.90;100.00;101587.34;5077189;28;45419;-80
2024/02/14 05:11:55;;;;;;;;;0.00;0.00;;;;;14.92;100.00;101589.94;5074781;28;75240;-80
2024/02/14 05:14:20;;;;;;;;;0.00;0.00;;;;;14.87;100.00;101595.31;5075166;28;45346;-80
2024/02/14 05:16:46;;;;;;;;;0.00;0.00;;;;;14.89;100.00;101600.50;5075711;28;70361;-81
2024/02/14 05:19:11;;;;;;;;;0.00;0.00;;;;;14.86;100.00;101598.88;5074554;28;68698;-80
2024/02/14 05:21:38;;;;;;;;;0.00;0.00;;;;;14.83;100.00;101596.34;5076474;28;46189;-80
2024/02/14 05:24:04;;;;;;;;;0.00;0.00;;;;;14.87;100.00;101592.69;5074948;27;45408;-80
2024/02/14 05:26:29;;;;;;;;;0.00;0.00;;;;;14.87;100.00;101584.81;5076654;27;45439;-80
2024/02/14 05:28:54;;;;;;;;;0.00;0.00;;;;;14.90;100.00;101574.25;5076333;28;45358;-80
2024/02/14 05:31:20;;;;;;;;;0.00;0.00;;;;;14.92;100.00;101575.97;5074233;28;70694;-80
2024/02/14 05:33:45;;;;;;;;;0.00;0.00;;;;;14.88;100.00;101580.47;5074869;28;54779;-80
2024/02/14 05:36:10;;;;;;;;;0.00;0.00;;;;;14.89;100.00;101575.19;5075574;27;68956;-81
2024/02/14 05:38:36;;;;;;;;;0.00;0.00;;;;;14.90;100.00;101574.25;5075369;28;65465;-80
2024/02/14 05:41:01;;;;;;;;;0.00;0.00;;;;;14.89;100.00;101569.94;5076167;28;45929;-80
2024/02/14 05:43:26;;;;;;;;;0.00;0.00;;;;;14.95;100.00;101563.63;5075899;28;45342;-81
2024/02/14 05:45:52;;;;;;;;;0.00;0.00;;;;;14.98;100.00;101567.91;5076430;28;45291;-80
2024/02/14 05:48:19;;;;;;;;;0.00;0.00;;;;;14.98;100.00;101571.38;5076312;28;45330;-80
2024/02/14 05:50:44;;;;;;;;;0.00;0.00;;;;;15.00;100.00;101566.94;5074798;28;45476;-80
2024/02/14 05:53:09;;;;;;;;;0.00;0.00;;;;;14.99;100.00;101567.84;5076796;27;54877;-80
2024/02/14 05:55:35;;;;;;;;;0.00;0.00;;;;;15.04;100.00;101565.06;5079923;27;45331;-80
2024/02/14 05:58:00;;;;;;;;;0.00;0.00;;;;;15.10;100.00;101572.72;5078701;28;61577;-80
2024/02/14 06:00:25;;;;;;;;;0.00;0.00;;;;;15.14;100.00;101578.72;5079482;28;45362;-80
2024/02/14 06:02:51;;;;;;;;;0.00;0.00;;;;;15.14;100.00;101578.72;5079536;28;45304;-80
2024/02/14 06:05:16;;;;;;;;;0.00;0.00;;;;;15.15;100.00;101581.28;5079256;28;53137;-80
2024/02/14 06:07:44;;;;;;;;;0.00;0.00;;;;;15.16;100.00;101590.03;5079639;27;45297;-80
2024/02/14 06:10:10;;;;;;;;;0.00;0.00;;;;;15.21;100.00;101594.19;5079288;28;45410;-80
2024/02/14 06:12:36;;;;;;;;;0.00;0.00;;;;;15.19;100.00;101596.00;5079122;28;45517;-80
2024/02/14 06:15:02;;;;;;;;;0.00;0.00;;;;;15.24;100.00;101598.47;5078383;28;45395;-80
2024/02/14 06:17:27;;;;;;;;;0.00;0.00;;;;;15.24;100.00;101595.84;5078205;28;45459;-81
2024/02/14 06:19:53;;;;;;;;;0.00;0.00;;;;;15.27;100.00;101603.63;5079359;28;45272;-81
2024/02/14 06:22:18;;;;;;;;;0.00;0.00;;;;;15.24;100.00;101601.09;5079389;28;45311;-82
2024/02/14 06:24:44;;;;;;;;;0.00;0.00;;;;;15.27;100.00;101601.84;5078834;27;45337;-81
2024/02/14 06:27:09;;;;;;;;;0.00;0.00;;;;;15.23;100.00;101607.22;5079048;28;45392;-81
2024/02/14 06:29:35;;;;;;;;;0.00;0.00;;;;;15.21;100.00;101596.81;5079210;27;46185;-82
2024/02/14 06:32:00;;;;;;;;;0.00;0.00;;;;;15.20;100.00;101605.56;5078631;28;68800;-79
2024/02/14 06:34:27;;;;;;;;;0.00;0.00;;;;;15.22;100.00;101616.03;5079120;27;63207;-81
2024/02/14 06:36:52;;;;;;;;;0.00;0.00;;;;;15.21;100.00;101620.41;5079606;28;45394;-83
2024/02/14 06:39:18;;;;;;;;;0.00;0.00;;;;;15.21;100.00;101606.44;5078453;27;75546;-81
2024/02/14 06:41:45;;;;;;;;;0.00;0.00;;;;;15.22;100.00;101611.63;5078842;27;45565;-81
2024/02/14 06:44:10;;;;;;;;;0.00;0.00;;;;;15.22;100.00;101616.03;5079592;27;45496;-82
2024/02/14 06:46:37;;;;;;;;;0.00;0.00;;;;;15.22;100.00;101624.75;5079174;28;45275;-81
2024/02/14 06:49:03;;;;;;;;;0.00;0.00;;;;;15.25;100.00;101624.66;5077813;28;45407;-81
2024/02/14 06:51:28;;;;;;;;;0.00;0.00;;;;;15.27;100.00;101619.34;5079048;27;45623;-81
2024/02/14 06:53:54;;;;;;;;;0.00;0.00;;;;;15.29;100.00;101621.00;5079165;28;45398;-81
2024/02/14 06:56:19;;;;;;;;;0.00;0.00;;;;;15.32;100.00;101632.28;5078813;28;45487;-80
2024/02/14 06:58:46;;;;;;;;;0.00;0.00;;;;;15.27;100.00;101629.84;5078676;28;45435;-80
2024/02/14 07:01:13;;;;;;;;;0.00;0.00;;;;;15.28;100.00;101632.41;5078894;28;45528;-80
2024/02/14 07:03:40;;;;;;;;;0.00;0.00;;;;;15.28;100.00;101642.03;5079000;28;45424;-80
2024/02/14 07:06:06;;;;;;;;;0.00;0.00;;;;;15.35;100.00;101642.69;5077631;28;45410;-80
2024/02/14 07:08:31;;;;;;;;;0.00;0.00;;;;;15.38;100.00;101637.31;5077381;28;48034;-80
2024/02/14 07:10:56;;;;;;;;;0.00;0.00;;;;;15.36;100.00;101640.03;5077049;28;45340;-81
2024/02/14 07:13:22;;;;;;;;;0.00;0.00;;;;;15.38;100.00;101642.56;5077870;27;67796;-80
2024/02/14 07:15:47;;;;;;;;;0.00;0.00;;;;;15.39;100.00;101641.66;5077851;28;69485;-80
2024/02/14 07:18:12;;;;;;;;;0.00;0.00;;;;;15.43;100.00;101635.41;5077380;27;73496;-81
2024/02/14 07:20:38;;;;;;;;;0.00;0.00;;;;;15.44;100.00;101631.88;5077414;28;73067;-81
2024/02/14 07:23:04;;;;;;;;;0.00;0.00;;;;;15.48;100.00;101641.34;5078340;28;45312;-81
2024/02/14 07:25:29;;;;;;;;;0.00;0.00;;;;;15.52;100.00;101642.09;5078029;27;45438;-81
2024/02/14 07:27:54;;;;;;;;;0.00;0.00;;;;;15.59;100.00;101654.94;5077973;28;59395;-81
2024/02/14 07:30:20;;;;;;;;;0.00;0.00;;;;;15.67;100.00;101659.91;5078385;28;45505;-80
2024/02/14 07:32:45;;;;;;;;;0.00;0.00;;;;;15.75;100.00;101667.53;5078603;27;45399;-81
2024/02/14 07:35:11;;;;;;;;;0.00;0.00;;;;;15.72;100.00;101665.88;5078179;27;45461;-81
2024/02/14 07:37:37;;;;;;;;;0.00;0.00;;;;;15.75;100.00;101672.78;5078150;27;46447;-81
2024/02/14 07:40:03;;;;;;;;;0.00;0.00;;;;;15.76;100.00;101675.38;5077789;27;45388;-81
2024/02/14 07:42:28;;;;;;;;;0.00;0.00;;;;;15.65;100.00;101682.75;5078161;27;45500;-81
2024/02/14 07:44:56;;;;;;;;;0.00;0.00;;;;;15.63;100.00;101685.41;5077473;27;70636;-81
2024/02/14 07:47:21;;;;;;;;;0.00;0.00;;;;;15.67;100.00;101689.66;5077677;27;45381;-82
2024/02/14 07:49:46;;;;;;;;;0.00;0.00;;;;;15.68;100.00;101680.88;5077832;28;47197;-80
2024/02/14 07:52:11;;;;;;;;;0.00;0.00;;;;;15.67;100.00;101679.16;5077142;27;68936;-80
2024/02/14 07:54:37;;;;;;;;;0.00;0.00;;;;;15.67;100.00;101673.03;5076578;28;70368;-79
2024/02/14 07:57:02;;;;;;;;;0.00;0.00;;;;;15.81;100.00;101662.94;5077831;27;45579;-80
2024/02/14 07:59:28;;;;;;;;;0.00;0.00;;;;;15.70;100.00;101665.06;5077819;27;45454;-81
2024/02/14 08:01:54;;;;;;;;;0.00;0.00;;;;;15.73;100.00;101669.34;5076843;27;69139;-80
2024/02/14 08:04:19;;;;;;;;;0.00;0.00;;;;;15.77;100.00;101679.72;5077886;27;45562;-79
2024/02/14 08:06:46;;;;;;;;;0.00;0.00;;;;;15.81;100.00;101690.97;5076585;27;75697;-80
2024/02/14 08:09:11;;;;;;;;;0.00;0.00;;;;;15.82;100.00;101683.06;5077146;28;45363;-81
2024/02/14 08:11:36;;;;;;;;;0.00;0.00;;;;;15.89;100.00;101686.28;5076631;27;69447;-81
2024/02/14 08:14:02;;;;;;;;;0.00;0.00;;;;;15.95;100.00;101678.19;5077584;28;45426;-81
2024/02/14 08:16:28;;;;;;;;;0.00;0.00;;;;;15.83;100.00;101684.75;5077307;27;45425;-81
2024/02/14 08:18:58;;;;;;;;;0.00;0.00;;;;;15.82;100.00;101685.69;5077443;28;47045;-81
2024/02/14 08:21:25;;;;;;;;;0.00;0.00;;;;;15.87;100.00;101678.47;5077584;28;45308;-79
2024/02/14 08:23:51;;;;;;;;;0.00;0.00;;;;;16.04;100.00;101684.88;5075646;27;45372;-78
2024/02/14 08:26:16;;;;;;;;;0.00;0.00;;;;;16.13;100.00;101688.94;5075966;28;45404;-81
2024/02/14 08:28:42;;;;;;;;;0.00;0.00;;;;;16.14;100.00;101699.41;5076786;28;69569;-81
2024/02/14 08:31:11;;;;;;;;;0.00;0.00;;;;;16.14;100.00;101691.53;5077057;27;67611;-82
2024/02/14 08:33:37;;;;;;;;;0.00;0.00;;;;;16.19;100.00;101700.06;5076676;28;45386;-79
2024/02/14 08:36:03;;;;;;;;;0.00;0.00;;;;;16.18;100.00;101695.75;5077557;28;46466;-80
2024/02/14 08:38:28;;;;;;;;;0.00;0.00;;;;;16.19;100.00;101700.06;5075957;28;45439;-80
2024/02/14 08:40:54;;;;;;;;;0.00;0.00;;;;;16.19;100.00;101704.47;5077552;27;45463;-80
2024/02/14 08:43:19;;;;;;;;;0.00;0.00;;;;;16.20;100.00;101706.19;5077458;28;45276;-80
2024/02/14 08:45:45;;;;;;;;;0.00;0.00;;;;;16.26;100.00;101705.97;5077134;28;46286;-79
2024/02/14 08:48:10;;;;;;;;;0.00;0.00;;;;;16.15;100.00;101697.63;5076177;27;73088;-81
2024/02/14 08:50:36;;;;;;;;;0.00;0.00;;;;;16.32;100.00;101700.47;5072651;28;45394;-80
2024/02/14 08:53:01;;;;;;;;;0.00;0.00;;;;;16.20;100.00;101693.06;5056953;28;45556;-80
2024/02/14 08:55:27;;;;;;;;;0.00;0.00;;;;;16.32;100.00;101695.22;5056239;27;68086;-81
2024/02/14 08:57:52;;;;;;;;;0.00;0.00;;;;;16.49;100.00;101698.97;5055409;28;45394;-81
2024/02/14 09:00:21;;;;;;;;;0.00;0.00;;;;;16.56;100.00;101703.94;5054577;28;63375;-81
2024/02/14 09:02:47;;;;;;;;;0.00;0.00;;;;;16.55;100.00;101710.13;5056580;28;45451;-80
2024/02/14 09:05:13;;;;;;;;;0.00;0.00;;;;;16.54;100.00;101711.00;5072444;28;46270;-81
2024/02/14 09:07:38;;;;;;;;;4.00;4.00;;;;;16.51;100.00;101718.16;5056126;28;48008;-81
2024/02/14 09:10:05;;;;;;;;;0.00;0.00;;;;;16.50;100.00;101719.94;5056684;28;45349;-80
2024/02/14 09:12:31;;;;;;;;;0.00;0.00;;;;;16.47;100.00;101725.31;5056643;28;45358;-81
2024/02/14 09:14:57;;;;;;;;;0.00;0.00;;;;;16.50;100.00;101724.34;5055403;28;45509;-81
2024/02/14 09:17:22;;;;;;;;;0.00;0.00;;;;;16.51;100.00;101720.78;5055024;28;45421;-80
2024/02/14 09:19:48;;;;;;;;;0.00;0.00;;;;;16.41;100.00;101723.75;5055665;28;69080;-80
2024/02/14 09:22:18;;;;;;;;;0.00;0.00;;;;;16.33;100.00;101723.22;5055818;28;45480;-79
2024/02/14 09:24:43;;;;;;;;;0.00;0.00;;;;;16.37;100.00;101724.81;5066692;27;45559;-82
2024/02/14 09:27:09;;;;;;;;;0.00;0.00;;;;;16.44;100.00;101726.28;5076099;28;45375;-81
2024/02/14 09:29:37;;;;;;;;;0.00;0.00;;;;;16.50;100.00;101712.06;5076557;28;45450;-82
2024/02/14 09:32:03;;;;;;;;;0.00;0.00;;;;;16.49;100.00;101699.81;5076480;27;45526;-81
2024/02/14 09:34:29;;;;;;;;;0.00;0.00;;;;;16.56;100.00;101703.06;5075834;28;46113;-79
2024/02/14 09:36:56;;;;;;;;;0.00;0.00;;;;;16.56;100.00;101703.06;5076313;28;45453;-79
2024/02/14 09:39:21;;;;;;;;;0.00;0.00;;;;;16.55;100.00;101696.13;5076474;28;45271;-82
2024/02/14 09:41:54;;;;;;;;;0.00;0.00;;;;;16.68;100.00;101694.72;5076295;28;45379;-82
2024/02/14 09:44:21;;;;;;;;;0.00;0.00;;;;;16.79;100.00;101697.78;5074990;28;46259;-81
2024/02/14 09:46:46;;;;;;;;;0.00;0.00;;;;;16.79;100.00;101692.53;5076096;27;45338;-82
2024/02/14 09:49:13;;;;;;;;;0.00;0.00;;;;;16.86;100.00;101695.78;5075786;27;45394;-81
2024/02/14 09:51:39;;;;;;;;;0.00;0.00;;;;;16.94;100.00;101696.34;5075099;28;45413;-81
2024/02/14 09:54:04;;;;;;;;;0.00;0.00;;;;;16.89;100.00;101693.03;5074033;28;70527;-81
2024/02/14 09:56:31;;;;;;;;;0.00;0.00;;;;;16.90;100.00;101689.50;5075112;28;73395;-82
2024/02/14 09:58:56;;;;;;;;;0.00;0.00;;;;;17.13;100.00;101692.97;5074879;28;45351;-81
2024/02/14 10:01:23;;;;;;;;;0.00;0.00;;;;;17.12;100.00;101694.72;5076112;27;45311;-81
2024/02/14 10:03:53;;;;;;;;;0.00;0.00;;;;;17.09;100.00;101686.97;5075737;28;45441;-81
2024/02/14 10:06:21;;;;;;;;;0.00;0.00;;;;;17.16;100.00;101698.97;5075899;27;45461;-81
2024/02/14 10:08:53;;;;;;;;;0.00;0.00;;;;;17.09;100.00;101700.13;5076135;27;45414;-81
2024/02/14 10:11:21;;;;;;;;;0.00;0.00;;;;;17.11;100.00;101697.44;5074717;28;45383;-81
2024/02/14 10:13:47;;;;;;;;;0.00;0.00;;;;;17.22;100.00;101692.59;5075765;28;46299;-81
2024/02/14 10:16:18;;;;;;;;;0.00;0.00;;;;;17.25;100.00;101696.84;5075934;27;45307;-82
2024/02/14 10:18:43;;;;;;;;;0.00;0.00;;;;;17.33;100.00;101697.41;5075762;28;45344;-81
2024/02/14 10:21:14;;;;;;;;;0.00;0.00;;;;;17.46;100.00;101702.97;5075892;28;45392;-80
2024/02/14 10:23:40;;;;;;;;;0.00;0.00;;;;;17.64;100.00;101699.56;5075347;27;46224;-81
2024/02/14 10:26:05;;;;;;;;;0.00;0.00;;;;;17.78;100.00;101709.50;5074888;27;68084;-80
2024/02/14 10:28:32;;;;;;;;;0.00;0.00;;;;;17.83;100.00;101712.81;5075018;28;62069;-80
2024/02/14 10:30:58;;;;;;;;;0.00;0.00;;;;;17.63;100.00;101712.81;5074392;28;45475;-80
2024/02/14 10:33:27;;;;;;;;;0.00;0.00;;;;;17.69;100.00;101715.19;5075495;27;47373;-80
2024/02/14 10:35:54;;;;;;;;;0.00;0.00;;;;;17.67;100.00;101723.13;5075835;28;45475;-80
2024/02/14 10:38:20;;;;;;;;;0.00;0.00;;;;;17.68;100.00;101724.84;5076240;27;45308;-81
2024/02/14 10:40:47;;;;;;;;;0.00;0.00;;;;;17.62;100.00;101722.47;5079099;28;45367;-80
2024/02/14 10:43:12;;;;;;;;;0.00;0.00;;;;;17.61;100.00;101729.53;5079340;27;46378;-81
2024/02/14 10:45:39;;;;;;;;;0.00;0.00;;;;;17.67;100.00;101730.19;5078116;28;45308;-81
2024/02/14 10:48:08;;;;;;;;;0.00;0.00;;;;;17.71;100.00;101729.13;5078766;27;45434;-81
2024/02/14 10:50:37;;;;;;;;;2.00;2.00;;;;;17.66;100.00;101736.34;5079060;28;45410;-81
2024/02/14 10:53:05;;;;;;;;;0.00;0.00;;;;;17.73;100.00;101750.97;5079339;28;46313;-80
2024/02/14 10:55:31;;;;;;;;;0.00;0.00;;;;;17.66;100.00;101750.38;5078958;28;45491;-81
2024/02/14 10:57:57;;;;;;;;;0.00;0.00;;;;;17.65;100.00;101755.72;5077971;28;45343;-81
2024/02/14 11:00:24;;;;;;;;;0.00;0.00;;;;;17.64;100.00;101754.84;5077665;28;45438;-82
2024/02/14 11:02:51;;;;;;;;;0.00;0.00;;;;;17.70;100.00;101743.19;5078467;27;47163;-81
2024/02/14 11:05:19;;;;;;;;;5.25;0.50;;;;;17.65;100.00;101739.94;5077490;28;45403;-79
2024/02/14 11:07:48;;;;;;;;;0.00;0.00;;;;;17.55;100.00;101737.69;5079047;27;45546;-80
2024/02/14 11:10:16;;;;;;;;;0.50;0.50;;;;;17.44;100.00;101734.66;5079019;27;45396;-82